Cazenovia, NY (13035)

7:57 AM EDT on April 23, 2017 (GMT -0400)
Willow Bank Yacht Club | | Change Station

Elev 1198 ft 42.93 °N, 75.86 °W | Updated 9 seconds ago

Clear
Clear
37.5 °F
Feels Like 38 °F
N
1.9
Wind Variable Wind from SSE
Gusts 2.0 mph

Today
High -- | Low -- °F
--% Chance of Precip.
Yesterday
High -- | Low -- °F
Precip. -- in
Pressure 30.13 in
Visibility 10.0 miles
Clouds Clear
Windchill 38 °F
Dew Point 37 °F
Humidity 95%
Rainfall 0.00 in
Snow Depth Not available.
6:08 AM 7:55 PM
Waning Crescent, 12% visible
METAR KSYR 231154Z 00000KT 10SM CLR 04/03 A3013 RMK AO2 SLP203 T00440028 10044 20000 53019
Pressure 30.13 in
Visibility 10.0 miles
Clouds Clear
Windchill 38 °F
Dew Point 37 °F
Humidity 95%
Rainfall 0.00 in
Snow Depth Not available.
6:08 AM 7:55 PM
Waning Crescent, 12% visible
METAR KSYR 231154Z 00000KT 10SM CLR 04/03 A3013 RMK AO2 SLP203 T00440028 10044 20000 53019

Get Severe Weather Alerts

Thanks for signing up!

Be on the lookout for a verification email in your inbox.

You'll start receiving the daily forecast at 8 AM.

×

10-Day Weather Forecast

Almanac

Astronomy

Apr. 23, 2017 Rise Set
Actual Time
Civil Twilight
Nautical Twilight
Astronomical Twilight
Moon
Length of Visible Light
Length of Day
Tomorrow will be .
, % of the Moon is Illuminated

Today's Extremes

State Highs State Lows

Community

WunderPhotos

WunderBlog® & News

Nearby

Air Quality

  Air Quality AQ Index Pollutant
Not available.

Snow Depth

Station Depth Elevation

Earthquake Activity

City Distance Mag. Time & Date
Minimum magnitude displayed is 2.5.

Coastal Water Temperatures

Place Temperature

Stations

Nearby Weather Stations

Station Location Temp. Windchill Dew Point Humidity Wind Precip. Elev Updated Type
                   

Watches & Warnings

There are currently no watches in effect.